Elizabeth Mc Allister — WDB7652 — position and weather

sailwx.info

Track history (hours):
 
Tides and Currents Weather Stations Pressure Air Temp Water Temp Dewpoint Dewpoint Depression Visibility Wind Speed Wind Dir Waves Ship Positions

Elizabeth Mc Allister

Owner: MC ALLISTER TOWING & TRANSPORTATION INC, NEW YORK, NY. More information available from US FCC via Universal Licensing System and Coast Guard Vessel Documentation Center.

Last reported at 2017-Feb-21 01:33 UTC. Time now 2017-Feb-26 07:40 UTC.
Position N 40°38' W 074°10'.

Length 31 m.

Type: Tug. MMSI: 362751376.

Date/timePositionNaut miles runAvg speedWind from/ knotsBaromVisibWave heightAir tempDewpointWater temp
2017-Feb-21 01:33N 40°38' W 074°10'2 2.0
2017-Feb-21 00:33N 40°40' W 074°08'0 0.3
2017-Feb-20 23:33N 40°40' W 074°08'2 2.4
2017-Feb-20 22:33N 40°40' W 074°05'2 2.0
2017-Feb-20 21:33N 40°39' W 074°07'3 2.7
2017-Feb-20 20:33N 40°41' W 074°08'1 0.8
2017-Feb-20 19:33N 40°42' W 074°09'1 1.3
2017-Feb-20 18:33N 40°41' W 074°08'0 0.1
2017-Feb-20 17:33N 40°41' W 074°08'  
2017-Feb-15 23:33N 40°40' W 074°08'0 0.2
2017-Feb-15 22:33N 40°40' W 074°08'1 1.2
2017-Feb-15 21:33N 40°39' W 074°09'3 3.5
2017-Feb-15 20:33N 40°39' W 074°04'1 1.0
2017-Feb-15 19:33N 40°40' W 074°05'2 2.3
2017-Feb-15 18:33N 40°38' W 074°03'1 1.3
2017-Feb-15 17:33N 40°40' W 074°03'1 1.1
2017-Feb-15 16:33N 40°40' W 074°05'1 0.6
2017-Feb-15 15:33N 40°40' W 074°04'  
Track history (hours):
 
Tides and Currents Weather Stations Pressure Air Temp Water Temp Dewpoint Dewpoint Depression Visibility Wind Speed Wind Dir Waves Ship Positions

Elizabeth Mc Allister

Owner: MC ALLISTER TOWING & TRANSPORTATION INC, NEW YORK, NY. More information available from US FCC via Universal Licensing System and Coast Guard Vessel Documentation Center.

Last reported at 2017-Feb-21 01:33 UTC. Time now 2017-Feb-26 07:40 UTC.
Position N 40°38' W 074°10'.

Length 31 m.

Type: Tug. MMSI: 362751376.

Date/timePositionNaut miles runAvg speedWind from/ knotsBaromVisibWave heightAir tempDewpointWater temp
2017-Feb-21 01:33N 40°38' W 074°10'2 2.0
2017-Feb-21 00:33N 40°40' W 074°08'0 0.3
2017-Feb-20 23:33N 40°40' W 074°08'2 2.4
2017-Feb-20 22:33N 40°40' W 074°05'2 2.0
2017-Feb-20 21:33N 40°39' W 074°07'3 2.7
2017-Feb-20 20:33N 40°41' W 074°08'1 0.8
2017-Feb-20 19:33N 40°42' W 074°09'1 1.3
2017-Feb-20 18:33N 40°41' W 074°08'0 0.1
2017-Feb-20 17:33N 40°41' W 074°08'  
2017-Feb-15 23:33N 40°40' W 074°08'0 0.2
2017-Feb-15 22:33N 40°40' W 074°08'1 1.2
2017-Feb-15 21:33N 40°39' W 074°09'3 3.5
2017-Feb-15 20:33N 40°39' W 074°04'1 1.0
2017-Feb-15 19:33N 40°40' W 074°05'2 2.3
2017-Feb-15 18:33N 40°38' W 074°03'1 1.3
2017-Feb-15 17:33N 40°40' W 074°03'1 1.1
2017-Feb-15 16:33N 40°40' W 074°05'1 0.6
2017-Feb-15 15:33N 40°40' W 074°04'  

Dump ship's entire track history